createdAt,value
2023-01-21T00:02:48.433Z,99.37
2023-01-21T00:07:52.885Z,99.60
2023-01-21T00:12:55.936Z,99.25
2023-01-21T00:17:59.031Z,99.02
2023-01-21T00:23:03.883Z,98.90
2023-01-21T00:28:07.019Z,98.65
2023-01-21T00:33:10.150Z,98.50
2023-01-21T00:38:14.666Z,98.61
2023-01-21T00:43:17.904Z,98.59
2023-01-21T00:48:21.634Z,98.52
2023-01-21T00:53:26.398Z,98.94
2023-01-21T00:58:29.777Z,98.82
2023-01-21T01:03:33.898Z,99.12
2023-01-21T01:08:38.518Z,99.24
2023-01-21T01:13:42.112Z,98.73
2023-01-21T01:18:45.232Z,98.45
2023-01-21T01:23:52.184Z,97.97
2023-01-21T01:28:55.389Z,98.20
2023-01-21T01:33:58.877Z,97.84
2023-01-21T01:39:04.035Z,98.51
2023-01-21T01:44:45.523Z,98.26
2023-01-21T01:49:49.897Z,97.83
2023-01-21T01:54:58.619Z,97.53
2023-01-21T02:00:04.224Z,97.56
2023-01-21T02:05:10.955Z,97.59
2023-01-21T02:10:16.577Z,97.90
2023-01-21T02:15:21.569Z,97.72
2023-01-21T02:21:06.672Z,97.27
2023-01-21T02:26:38.855Z,97.35
2023-01-21T02:32:10.854Z,97.84
2023-01-21T02:37:24.061Z,97.80
2023-01-21T02:42:34.291Z,98.05
2023-01-21T02:47:46.279Z,98.37
2023-01-21T02:52:57.958Z,98.64
2023-01-21T02:58:03.953Z,98.54
2023-01-21T03:03:46.864Z,98.45
2023-01-21T03:08:55.695Z,98.00
2023-01-21T03:14:23.230Z,97.91
2023-01-21T03:19:34.938Z,98.00
2023-01-21T03:24:41.662Z,98.53
2023-01-21T03:29:47.791Z,98.32
2023-01-21T03:34:56.242Z,97.97
2023-01-21T03:40:12.462Z,97.52
2023-01-21T03:45:15.865Z,97.65
2023-01-21T03:50:23.823Z,97.65
2023-01-21T03:55:28.389Z,97.66
2023-01-21T04:00:31.737Z,97.58
2023-01-21T04:05:36.104Z,97.57
2023-01-21T04:10:41.039Z,97.73
2023-01-21T04:15:44.335Z,97.89
2023-01-21T04:20:47.804Z,98.15
2023-01-21T04:25:53.063Z,98.45
2023-01-21T04:30:56.916Z,99.22
2023-01-21T04:36:01.046Z,98.62
2023-01-21T04:41:05.839Z,99.28
2023-01-21T04:46:08.931Z,99.03
2023-01-21T04:51:12.137Z,99.34
2023-01-21T04:56:16.916Z,99.20
2023-01-21T05:01:20.075Z,99.53
2023-01-21T05:06:23.346Z,99.69
2023-01-21T05:11:27.890Z,100.00
2023-01-21T05:16:31.308Z,100.00
2023-01-21T05:21:34.744Z,100.00
2023-01-21T05:26:39.551Z,100.00
2023-01-21T05:31:43.603Z,100.00
2023-01-21T05:36:46.915Z,100.00
2023-01-21T05:41:51.611Z,100.00
2023-01-21T05:46:54.821Z,100.00
2023-01-21T05:51:58.165Z,100.00
2023-01-21T05:57:02.813Z,100.00
2023-01-21T06:02:07.043Z,100.00
2023-01-21T06:07:11.378Z,100.00
2023-01-21T06:12:15.814Z,100.00
2023-01-21T06:17:19.043Z,100.00
2023-01-21T06:22:22.377Z,100.00
2023-01-21T06:27:26.854Z,100.00
2023-01-21T06:32:30.138Z,100.00
2023-01-21T06:37:33.234Z,100.00
2023-01-21T06:42:37.873Z,100.00
2023-01-21T06:47:42.789Z,100.00
2023-01-21T06:52:47.859Z,100.00
2023-01-21T06:57:52.394Z,100.00
2023-01-21T07:02:57.959Z,100.00
2023-01-21T07:08:01.747Z,100.00
2023-01-21T07:13:06.636Z,100.00
2023-01-21T07:18:09.875Z,100.00
2023-01-21T07:23:13.100Z,100.00
2023-01-21T07:28:18.156Z,100.00
2023-01-21T07:33:21.447Z,100.00
2023-01-21T07:38:24.864Z,100.00
2023-01-21T07:43:29.400Z,100.00
2023-01-21T07:48:32.523Z,100.00
2023-01-21T07:53:35.939Z,100.00
2023-01-21T07:58:41.091Z,100.00
2023-01-21T08:03:44.463Z,100.00
2023-01-21T08:08:47.700Z,100.00
2023-01-21T08:13:55.852Z,100.00
2023-01-21T08:18:59.263Z,100.00
2023-01-21T08:24:03.694Z,100.00
2023-01-21T08:29:09.017Z,100.00
2023-01-21T08:34:12.374Z,100.00
2023-01-21T08:39:16.745Z,100.00
2023-01-21T08:44:21.240Z,100.00
2023-01-21T08:49:24.440Z,100.00
2023-01-21T08:54:27.971Z,100.00
2023-01-21T08:59:32.647Z,100.00
2023-01-21T09:04:35.909Z,100.00
2023-01-21T09:09:39.239Z,100.00
2023-01-21T09:14:43.986Z,99.81
2023-01-21T09:19:47.160Z,100.00
2023-01-21T09:24:50.402Z,99.97
2023-01-21T09:29:55.628Z,99.73
2023-01-21T09:34:58.738Z,99.31
2023-01-21T09:40:02.159Z,98.59
2023-01-21T09:45:07.847Z,99.03
2023-01-21T09:50:16.486Z,99.14
2023-01-21T09:55:21.487Z,98.41
2023-01-21T10:00:34.968Z,98.66
2023-01-21T10:05:54.579Z,98.14
2023-01-21T10:11:08.828Z,98.31
2023-01-21T10:16:23.163Z,98.00
2023-01-21T10:21:34.401Z,97.55
2023-01-21T10:26:38.146Z,97.30
2023-01-21T10:31:46.797Z,97.21
2023-01-21T10:37:07.157Z,97.20
2023-01-21T10:42:51.394Z,96.54
2023-01-21T10:48:05.620Z,96.34
2023-01-21T10:53:20.378Z,96.39
2023-01-21T10:58:31.662Z,96.36
2023-01-21T11:03:41.632Z,95.56
2023-01-21T11:08:48.512Z,95.76
2023-01-21T11:13:51.860Z,95.60
2023-01-21T11:19:01.642Z,94.71
2023-01-21T11:24:20.608Z,94.46
2023-01-21T11:29:25.691Z,93.98
2023-01-21T11:34:31.191Z,94.09
2023-01-21T11:39:38.311Z,94.08
2023-01-21T11:44:53.193Z,92.89
2023-01-21T11:50:04.310Z,92.64
2023-01-21T11:55:19.942Z,92.46
2023-01-21T12:00:27.146Z,92.87
2023-01-21T12:05:34.735Z,92.47
2023-01-21T12:10:45.571Z,91.77
2023-01-21T12:16:18.003Z,91.20
2023-01-21T12:21:36.360Z,91.36
2023-01-21T12:26:45.519Z,90.85
2023-01-21T12:31:54.636Z,90.45
2023-01-21T12:37:04.734Z,90.67
2023-01-21T12:42:11.810Z,89.83
2023-01-21T12:47:30.243Z,89.94
2023-01-21T12:52:43.113Z,90.11
2023-01-21T12:57:53.966Z,89.44
2023-01-21T13:03:11.379Z,89.62
2023-01-21T13:08:32.733Z,89.69
2023-01-21T13:13:41.827Z,89.96
2023-01-21T13:18:51.662Z,90.24
2023-01-21T13:24:09.820Z,90.45
2023-01-21T13:29:20.028Z,90.20
2023-01-21T13:34:30.927Z,90.41
2023-01-21T13:39:45.498Z,90.83
2023-01-21T13:45:08.248Z,90.66
2023-01-21T13:50:25.393Z,91.21
2023-01-21T13:55:41.319Z,91.37
2023-01-21T14:00:54.203Z,91.51
2023-01-21T14:06:05.715Z,91.63
2023-01-21T14:11:18.677Z,91.71
2023-01-21T14:16:57.647Z,92.32
2023-01-21T14:22:25.052Z,91.59
2023-01-21T14:27:39.120Z,92.56
2023-01-21T14:32:47.232Z,92.39
2023-01-21T14:37:59.022Z,92.47
2023-01-21T14:43:06.754Z,92.70
2023-01-21T14:48:31.942Z,93.29
2023-01-21T14:53:44.719Z,93.38
2023-01-21T14:58:51.409Z,94.14
2023-01-21T15:03:54.780Z,94.76
2023-01-21T15:09:00.546Z,94.98
2023-01-21T15:14:14.408Z,94.70
2023-01-21T15:19:29.865Z,95.14
2023-01-21T15:24:40.200Z,95.79
2023-01-21T15:29:47.595Z,95.70
2023-01-21T15:34:55.300Z,96.22
2023-01-21T15:40:00.947Z,96.17
2023-01-21T15:45:24.828Z,96.05
2023-01-21T15:50:32.286Z,96.85
2023-01-21T15:56:03.281Z,98.10
2023-01-21T16:01:15.779Z,99.13
2023-01-21T16:06:24.015Z,99.49
2023-01-21T16:11:42.232Z,100.00
2023-01-21T16:16:59.567Z,100.00
2023-01-21T16:22:16.871Z,100.00
2023-01-21T16:27:22.411Z,100.00
2023-01-21T16:32:27.324Z,100.00
2023-01-21T16:37:31.924Z,100.00
2023-01-21T16:42:37.576Z,100.00
2023-01-21T16:47:42.351Z,100.00
2023-01-21T16:52:46.200Z,100.00
2023-01-21T16:57:50.849Z,100.00
2023-01-21T17:02:55.711Z,100.00
2023-01-21T17:08:01.866Z,100.00
2023-01-21T17:13:12.275Z,100.00
2023-01-21T17:18:22.875Z,100.00
2023-01-21T17:23:28.595Z,100.00
2023-01-21T17:28:34.260Z,100.00
2023-01-21T17:33:38.960Z,100.00
2023-01-21T17:38:47.624Z,100.00
2023-01-21T17:43:53.425Z,100.00
2023-01-21T17:49:06.142Z,100.00
2023-01-21T17:54:20.768Z,100.00
2023-01-21T17:59:39.290Z,100.00
2023-01-21T18:04:44.625Z,100.00
2023-01-21T18:09:48.012Z,100.00
2023-01-21T18:14:51.113Z,100.00
2023-01-21T18:19:57.795Z,100.00
2023-01-21T18:25:02.992Z,100.00
2023-01-21T18:30:14.210Z,100.00
2023-01-21T18:35:20.685Z,100.00
2023-01-21T18:40:25.965Z,100.00
2023-01-21T18:45:30.110Z,100.00
2023-01-21T18:50:34.830Z,100.00
2023-01-21T18:55:38.078Z,100.00
2023-01-21T19:00:42.044Z,100.00
2023-01-21T19:05:48.376Z,100.00
2023-01-21T19:10:51.753Z,100.00
2023-01-21T19:15:55.052Z,100.00
2023-01-21T19:20:59.581Z,100.00
2023-01-21T19:26:05.631Z,100.00
2023-01-21T19:31:08.926Z,100.00
2023-01-21T19:36:17.609Z,100.00
2023-01-21T19:41:21.182Z,100.00
2023-01-21T19:46:28.928Z,100.00
2023-01-21T19:51:34.305Z,100.00
2023-01-21T19:56:38.109Z,100.00
2023-01-21T20:01:42.860Z,100.00
2023-01-21T20:06:49.123Z,100.00
2023-01-21T20:11:52.446Z,100.00
2023-01-21T20:16:58.278Z,100.00
2023-01-21T20:22:03.223Z,100.00
2023-01-21T20:27:09.362Z,100.00
2023-01-21T20:32:21.920Z,100.00
2023-01-21T20:37:34.102Z,100.00
2023-01-21T20:42:37.555Z,100.00
2023-01-21T20:47:49.722Z,100.00
2023-01-21T20:52:56.596Z,100.00
2023-01-21T20:58:01.051Z,100.00
2023-01-21T21:03:04.627Z,100.00
2023-01-21T21:08:16.219Z,100.00
2023-01-21T21:13:19.928Z,100.00
2023-01-21T21:18:23.367Z,100.00
2023-01-21T21:23:28.279Z,100.00
2023-01-21T21:28:31.466Z,100.00
2023-01-21T21:33:34.504Z,100.00
2023-01-21T21:38:39.658Z,100.00
2023-01-21T21:43:43.698Z,100.00
2023-01-21T21:48:46.893Z,100.00
2023-01-21T21:53:51.839Z,100.00
2023-01-21T21:58:56.205Z,100.00
2023-01-21T22:04:01.644Z,100.00
2023-01-21T22:09:06.417Z,100.00
2023-01-21T22:14:15.780Z,100.00
2023-01-21T22:19:18.979Z,100.00
2023-01-21T22:24:28.103Z,100.00
2023-01-21T22:29:31.855Z,100.00
2023-01-21T22:34:35.276Z,100.00
2023-01-21T22:39:39.747Z,100.00
2023-01-21T22:44:42.797Z,100.00
2023-01-21T22:49:48.183Z,100.00
2023-01-21T22:54:52.732Z,100.00
2023-01-21T22:59:56.044Z,100.00
2023-01-21T23:04:59.713Z,100.00
2023-01-21T23:10:04.413Z,100.00
2023-01-21T23:15:10.660Z,100.00
2023-01-21T23:20:14.533Z,100.00
2023-01-21T23:25:23.469Z,100.00
2023-01-21T23:30:27.038Z,100.00
2023-01-21T23:35:34.202Z,100.00
2023-01-21T23:40:39.132Z,100.00
2023-01-21T23:45:42.286Z,100.00
2023-01-21T23:50:45.596Z,100.00
2023-01-21T23:55:50.040Z,100.00
